createdAt,value
2019-05-11T00:00:28.311Z,101009.27
2019-05-11T00:01:30.707Z,101010.19
2019-05-11T00:02:32.909Z,101009.66
2019-05-11T00:03:35.302Z,101009.27
2019-05-11T00:04:37.504Z,101010.58
2019-05-11T00:05:39.920Z,101009.27
2019-05-11T00:06:42.147Z,101008.75
2019-05-11T00:07:44.546Z,101007.44
2019-05-11T00:08:46.758Z,101010.97
2019-05-11T00:09:57.361Z,101005.60
2019-05-11T00:10:53.042Z,101015.67
2019-05-11T00:11:55.449Z,101008.22
2019-05-11T00:12:57.673Z,101009.52
2019-05-11T00:14:00.073Z,101013.44
2019-05-11T00:15:02.289Z,101005.08
2019-05-11T00:16:04.713Z,101006.91
2019-05-11T00:17:06.912Z,101008.08
2019-05-11T00:18:09.328Z,101006.77
2019-05-11T00:19:11.645Z,101007.69
2019-05-11T00:20:14.048Z,101008.47
2019-05-11T00:21:16.234Z,101002.46
2019-05-11T00:22:18.639Z,101009.91
2019-05-11T00:23:20.884Z,101010.69
2019-05-11T00:24:23.285Z,101004.55
2019-05-11T00:25:25.497Z,101010.30
2019-05-11T00:26:27.921Z,101011.08
2019-05-11T00:27:30.117Z,101007.16
2019-05-11T00:28:32.519Z,101007.55
2019-05-11T00:29:34.729Z,101008.86
2019-05-11T00:30:37.121Z,101011.86
2019-05-11T00:31:39.361Z,101013.16
2019-05-11T00:32:41.747Z,101012.25
2019-05-11T00:33:44.053Z,101012.25
2019-05-11T00:34:46.446Z,101012.39
2019-05-11T00:35:48.681Z,101014.47
2019-05-11T00:36:51.066Z,101012.77
2019-05-11T00:37:53.275Z,101013.55
2019-05-11T00:38:55.667Z,101008.72
2019-05-11T00:40:12.074Z,101008.72
2019-05-11T00:41:01.952Z,101010.37
2019-05-11T00:42:04.215Z,101018.22
2019-05-11T00:43:06.563Z,101016.91
2019-05-11T00:44:08.782Z,101010.23
2019-05-11T00:45:11.178Z,101013.37
2019-05-11T00:46:13.403Z,101006.70
2019-05-11T00:47:15.795Z,101017.30
2019-05-11T00:48:17.996Z,101010.02
2019-05-11T00:49:20.436Z,101015.08
2019-05-11T00:50:37.595Z,101012.46
2019-05-11T00:51:26.699Z,101010.23
2019-05-11T00:52:28.906Z,101006.18
2019-05-11T00:53:31.314Z,101009.32
2019-05-11T00:54:33.545Z,101009.71
2019-05-11T00:55:35.918Z,101011.02
2019-05-11T00:56:38.130Z,101010.63
2019-05-11T00:57:40.519Z,101009.32
2019-05-11T00:58:42.738Z,101012.32
2019-05-11T00:59:45.155Z,101005.26
2019-05-11T01:00:47.392Z,101014.02
2019-05-11T01:01:49.767Z,101008.23
2019-05-11T01:02:51.973Z,101003.00
2019-05-11T01:03:54.358Z,101003.00
2019-05-11T01:04:56.598Z,101009.00
2019-05-11T01:05:59.059Z,101005.61
2019-05-11T01:07:01.279Z,101007.31
2019-05-11T01:08:03.670Z,101007.31
2019-05-11T01:09:06.529Z,101001.70
2019-05-11T01:10:22.894Z,101004.31
2019-05-11T01:11:12.797Z,101000.25
2019-05-11T01:12:15.189Z,101007.31
2019-05-11T01:13:17.403Z,101002.47
2019-05-11T01:14:19.793Z,101001.55
2019-05-11T01:15:22.055Z,101002.86
2019-05-11T01:16:24.441Z,101008.09
2019-05-11T01:17:26.661Z,101002.47
2019-05-11T01:18:29.077Z,101008.09
2019-05-11T01:19:31.281Z,101006.25
2019-05-11T01:20:33.641Z,101006.25
2019-05-11T01:21:35.881Z,101001.03
2019-05-11T01:22:38.320Z,101004.56
2019-05-11T01:23:40.504Z,101002.72
2019-05-11T01:24:42.892Z,101007.95
2019-05-11T01:25:45.157Z,101007.03
2019-05-11T01:26:47.535Z,101005.72
2019-05-11T01:27:49.751Z,101006.11
2019-05-11T01:28:52.178Z,101007.42
2019-05-11T01:29:54.381Z,101013.17
2019-05-11T01:30:56.782Z,101013.95
2019-05-11T01:31:58.985Z,101014.48
2019-05-11T01:33:01.371Z,101010.81
2019-05-11T01:34:03.582Z,101005.58
2019-05-11T01:35:05.979Z,101008.73
2019-05-11T01:36:08.228Z,101002.97
2019-05-11T01:37:10.627Z,101009.89
2019-05-11T01:38:12.815Z,101010.42
2019-05-11T01:39:15.223Z,101014.73
2019-05-11T01:40:17.431Z,101010.28
2019-05-11T01:41:19.850Z,101010.67
2019-05-11T01:42:22.055Z,101014.20
2019-05-11T01:43:24.442Z,101012.50
2019-05-11T01:44:26.650Z,101011.20
2019-05-11T01:45:29.055Z,101014.20
2019-05-11T01:46:31.275Z,101014.20
2019-05-11T01:47:33.672Z,101008.06
2019-05-11T01:48:35.879Z,101004.14
2019-05-11T01:49:38.265Z,101006.75
2019-05-11T01:50:40.491Z,101008.84
2019-05-11T01:51:42.909Z,101008.06
2019-05-11T01:52:45.105Z,101011.06
2019-05-11T01:53:48.166Z,101012.75
2019-05-11T01:54:50.419Z,101010.53
2019-05-11T01:55:52.814Z,101012.19
2019-05-11T01:56:55.053Z,101011.45
2019-05-11T01:57:57.439Z,101012.19
2019-05-11T01:58:59.657Z,101011.45
2019-05-11T02:00:02.051Z,101006.61
2019-05-11T02:01:04.248Z,101011.84
2019-05-11T02:02:06.660Z,101008.27
2019-05-11T02:03:08.875Z,101009.58
2019-05-11T02:04:11.264Z,101008.12
2019-05-11T02:05:32.311Z,101005.12
2019-05-11T02:06:34.698Z,101009.97
2019-05-11T02:07:36.915Z,101011.66
2019-05-11T02:08:39.319Z,101008.52
2019-05-11T02:09:41.508Z,101009.44
2019-05-11T02:10:43.904Z,101017.66
2019-05-11T02:11:46.123Z,101016.36
2019-05-11T02:12:48.518Z,101019.89
2019-05-11T02:13:50.719Z,101024.20
2019-05-11T02:14:53.111Z,101025.89
2019-05-11T02:15:55.321Z,101019.75
2019-05-11T02:16:57.777Z,101020.66
2019-05-11T02:18:00.067Z,101026.28
2019-05-11T02:19:02.444Z,101024.58
2019-05-11T02:20:04.667Z,101023.66
2019-05-11T02:21:07.066Z,101021.97
2019-05-11T02:22:09.292Z,101025.75
2019-05-11T02:23:11.682Z,101025.75
2019-05-11T02:24:13.962Z,101030.97
2019-05-11T02:25:16.344Z,101025.75
2019-05-11T02:26:18.555Z,101029.66
2019-05-11T02:27:20.965Z,101033.98
2019-05-11T02:28:23.164Z,101028.36
2019-05-11T02:29:25.570Z,101030.97
2019-05-11T02:30:27.769Z,101030.45
2019-05-11T02:31:30.158Z,101033.98
2019-05-11T02:32:32.378Z,101030.30
2019-05-11T02:33:34.778Z,101037.89
2019-05-11T02:34:36.987Z,101034.36
2019-05-11T02:35:39.359Z,101035.53
2019-05-11T02:36:41.645Z,101036.59
2019-05-11T02:37:44.074Z,101034.36
2019-05-11T02:38:46.262Z,101034.22
2019-05-11T02:39:48.578Z,101032.91
2019-05-11T02:40:50.801Z,101031.61
2019-05-11T02:41:53.188Z,101036.30
2019-05-11T02:42:55.390Z,101036.69
2019-05-11T02:43:57.969Z,101041.53
2019-05-11T02:45:00.184Z,101037.22
2019-05-11T02:46:02.611Z,101035.00
2019-05-11T02:47:04.824Z,101034.61
2019-05-11T02:48:07.237Z,101036.69
2019-05-11T02:49:09.434Z,101036.55
2019-05-11T02:50:11.831Z,101032.63
2019-05-11T02:51:14.043Z,101033.55
2019-05-11T02:52:16.467Z,101037.47
2019-05-11T02:53:18.762Z,101033.02
2019-05-11T02:54:21.153Z,101031.33
2019-05-11T02:55:23.368Z,101038.25
2019-05-11T02:56:25.759Z,101033.80
2019-05-11T02:57:27.983Z,101039.16
2019-05-11T02:58:30.370Z,101042.55
2019-05-11T02:59:32.577Z,101043.86
2019-05-11T03:00:34.964Z,101044.25
2019-05-11T03:01:37.169Z,101039.80
2019-05-11T03:02:39.578Z,101047.78
2019-05-11T03:03:41.787Z,101046.86
2019-05-11T03:04:44.181Z,101045.38
2019-05-11T03:05:46.427Z,101051.55
2019-05-11T03:06:48.818Z,101054.52
2019-05-11T03:07:51.063Z,101053.60
2019-05-11T03:08:53.450Z,101054.52
2019-05-11T03:09:55.653Z,101054.52
2019-05-11T03:10:58.049Z,101058.83
2019-05-11T03:12:00.247Z,101057.13
2019-05-11T03:13:02.669Z,101055.83
2019-05-11T03:14:04.867Z,101056.60
2019-05-11T03:15:07.275Z,101057.91
2019-05-11T03:16:09.459Z,101057.37
2019-05-11T03:17:18.705Z,101054.37
2019-05-11T03:18:20.930Z,101062.75
2019-05-11T03:19:23.305Z,101059.98
2019-05-11T03:20:25.499Z,101057.91
2019-05-11T03:21:27.913Z,101062.21
2019-05-11T03:22:30.108Z,101063.13
2019-05-11T03:23:32.518Z,101060.91
2019-05-11T03:24:34.662Z,101061.30
2019-05-11T03:25:37.048Z,101058.69
2019-05-11T03:26:39.243Z,101058.54
2019-05-11T03:27:41.648Z,101062.45
2019-05-11T03:28:43.876Z,101062.45
2019-05-11T03:29:46.272Z,101061.54
2019-05-11T03:30:48.485Z,101071.22
2019-05-11T03:31:50.865Z,101071.98
2019-05-11T03:32:53.077Z,101068.45
2019-05-11T03:33:55.506Z,101070.30
2019-05-11T03:34:57.710Z,101074.98
2019-05-11T03:36:00.101Z,101076.83
2019-05-11T03:37:02.304Z,101070.69
2019-05-11T03:38:04.687Z,101071.98
2019-05-11T03:39:06.913Z,101073.69
2019-05-11T03:40:09.305Z,101071.84
2019-05-11T03:41:11.505Z,101075.77
2019-05-11T03:42:15.407Z,101077.45
2019-05-11T03:43:17.819Z,101077.45
2019-05-11T03:44:20.222Z,101081.91
2019-05-11T03:45:22.436Z,101079.68
2019-05-11T03:46:24.847Z,101079.68
2019-05-11T03:47:27.063Z,101084.37
2019-05-11T03:48:29.464Z,101081.37
2019-05-11T03:49:31.670Z,101084.37
2019-05-11T03:50:34.060Z,101082.68
2019-05-11T03:51:36.260Z,101089.21
2019-05-11T03:52:38.648Z,101086.07
2019-05-11T03:53:40.865Z,101082.16
2019-05-11T03:54:43.258Z,101084.77
2019-05-11T03:55:45.455Z,101083.84
2019-05-11T03:56:47.842Z,101087.38
2019-05-11T03:57:50.053Z,101083.45
2019-05-11T03:58:52.505Z,101093.38
2019-05-11T03:59:54.800Z,101092.98
2019-05-11T04:00:57.195Z,101096.52
2019-05-11T04:01:59.409Z,101091.15
2019-05-11T04:03:01.887Z,101086.31
2019-05-11T04:04:04.094Z,101085.92
2019-05-11T04:05:06.482Z,101085.92
2019-05-11T04:06:08.708Z,101087.23
2019-05-11T04:07:11.082Z,101088.92
2019-05-11T04:08:13.304Z,101085.78
2019-05-11T04:09:15.805Z,101091.00
2019-05-11T04:10:17.991Z,101091.92
2019-05-11T04:11:20.380Z,101091.92
2019-05-11T04:12:34.037Z,101089.70
2019-05-11T04:13:27.878Z,101091.78
2019-05-11T04:14:30.076Z,101093.62
2019-05-11T04:15:32.463Z,101091.00
2019-05-11T04:16:34.669Z,101089.31
2019-05-11T04:17:37.089Z,101083.17
2019-05-11T04:18:39.315Z,101094.53
2019-05-11T04:19:41.695Z,101091.92
2019-05-11T04:20:43.907Z,101089.31
2019-05-11T04:21:46.320Z,101088.00
2019-05-11T04:22:48.516Z,101094.00
2019-05-11T04:23:50.941Z,101097.00
2019-05-11T04:24:53.141Z,101099.23
2019-05-11T04:25:55.526Z,101102.23
2019-05-11T04:26:57.757Z,101102.23
2019-05-11T04:28:00.155Z,101106.14
2019-05-11T04:29:02.384Z,101107.45
2019-05-11T04:30:04.784Z,101102.05
2019-05-11T04:31:07.005Z,101110.45
2019-05-11T04:32:09.411Z,101106.14
2019-05-11T04:33:11.638Z,101105.97
2019-05-11T04:34:14.032Z,101102.62
2019-05-11T04:35:16.240Z,101100.39
2019-05-11T04:36:18.628Z,101099.44
2019-05-11T04:37:20.853Z,101095.52
2019-05-11T04:38:23.278Z,101102.05
2019-05-11T04:39:25.486Z,101098.52
2019-05-11T04:40:27.892Z,101096.83
2019-05-11T04:41:30.105Z,101102.44
2019-05-11T04:42:32.494Z,101090.30
2019-05-11T04:43:34.733Z,101094.07
2019-05-11T04:44:38.941Z,101083.63
2019-05-11T04:45:41.155Z,101090.69
2019-05-11T04:46:43.562Z,101090.16
2019-05-11T04:47:45.786Z,101082.84
2019-05-11T04:48:48.209Z,101086.23
2019-05-11T04:49:51.534Z,101088.84
2019-05-11T04:50:53.935Z,101081.40
2019-05-11T04:51:56.154Z,101088.31
2019-05-11T04:52:58.553Z,101089.62
2019-05-11T04:54:00.760Z,101087.93
2019-05-11T04:55:03.156Z,101087.93
2019-05-11T04:56:05.401Z,101090.16
2019-05-11T04:57:07.800Z,101090.54
2019-05-11T04:58:10.027Z,101094.45
2019-05-11T04:59:12.424Z,101098.13
2019-05-11T05:00:14.656Z,101099.83
2019-05-11T05:01:17.046Z,101098.52
2019-05-11T05:02:19.270Z,101105.05
2019-05-11T05:03:21.694Z,101102.44
2019-05-11T05:04:23.895Z,101100.98
2019-05-11T05:05:26.343Z,101103.21
2019-05-11T05:06:28.612Z,101105.82
2019-05-11T05:07:30.947Z,101105.82
2019-05-11T05:08:33.182Z,101105.67
2019-05-11T05:09:42.008Z,101104.91
2019-05-11T05:10:39.492Z,101109.35
2019-05-11T05:11:41.913Z,101104.91
2019-05-11T05:12:50.379Z,101107.91
2019-05-11T05:13:48.171Z,101103.98
2019-05-11T05:14:50.442Z,101103.21
2019-05-11T05:15:52.840Z,101109.89
2019-05-11T05:16:55.047Z,101111.97
2019-05-11T05:17:57.436Z,101108.05
2019-05-11T05:18:59.668Z,101113.66
2019-05-11T05:20:02.076Z,101115.88
2019-05-11T05:21:04.312Z,101116.27
2019-05-11T05:22:06.774Z,101117.19
2019-05-11T05:23:08.992Z,101111.44
2019-05-11T05:24:11.396Z,101116.27
2019-05-11T05:25:13.601Z,101115.88
2019-05-11T05:26:16.002Z,101115.11
2019-05-11T05:27:18.241Z,101115.88
2019-05-11T05:28:20.656Z,101116.80
2019-05-11T05:29:23.890Z,101115.88
2019-05-11T05:30:26.288Z,101116.41
2019-05-11T05:31:28.518Z,101119.41
2019-05-11T05:32:30.908Z,101119.02
2019-05-11T05:33:33.113Z,101117.19
2019-05-11T05:34:35.565Z,101120.33
2019-05-11T05:35:37.726Z,101117.72
2019-05-11T05:36:40.119Z,101119.98
2019-05-11T05:37:42.328Z,101122.94
2019-05-11T05:38:44.762Z,101126.86
2019-05-11T05:39:46.983Z,101125.20
2019-05-11T05:40:49.372Z,101125.20
2019-05-11T05:41:57.153Z,101125.55
2019-05-11T05:42:55.644Z,101130.42
2019-05-11T05:43:57.872Z,101127.42
2019-05-11T05:45:00.607Z,101130.04
2019-05-11T05:46:02.820Z,101135.27
2019-05-11T05:47:05.233Z,101136.19
2019-05-11T05:48:07.472Z,101137.48
2019-05-11T05:49:09.866Z,101140.10
2019-05-11T05:50:12.066Z,101147.55
2019-05-11T05:51:14.468Z,101142.18
2019-05-11T05:52:16.653Z,101151.08
2019-05-11T05:53:19.106Z,101146.24
2019-05-11T05:54:21.291Z,101150.94
2019-05-11T05:55:23.682Z,101153.16
2019-05-11T05:56:25.900Z,101154.85
2019-05-11T05:57:28.297Z,101160.61
2019-05-11T05:58:30.506Z,101153.55
2019-05-11T05:59:32.919Z,101160.61
2019-05-11T06:00:35.127Z,101151.85
2019-05-11T06:01:37.497Z,101158.91
2019-05-11T06:02:40.638Z,101153.69
2019-05-11T06:03:44.828Z,101151.47
2019-05-11T06:04:47.057Z,101153.84
2019-05-11T06:05:49.434Z,101146.77
2019-05-11T06:06:51.639Z,101148.08
2019-05-11T06:07:54.041Z,101149.39
2019-05-11T06:08:56.245Z,101149.24
2019-05-11T06:09:58.665Z,101152.00
2019-05-11T06:11:00.876Z,101149.00
2019-05-11T06:12:03.269Z,101154.22
2019-05-11T06:13:05.471Z,101158.14
2019-05-11T06:14:07.863Z,101159.06
2019-05-11T06:15:10.088Z,101156.84
2019-05-11T06:16:12.475Z,101161.28
2019-05-11T06:17:14.753Z,101160.36
2019-05-11T06:18:17.138Z,101162.06
2019-05-11T06:19:19.314Z,101164.42
2019-05-11T06:20:21.742Z,101167.42
2019-05-11T06:21:23.942Z,101163.89
2019-05-11T06:22:26.391Z,101166.13
2019-05-11T06:23:28.627Z,101166.66
2019-05-11T06:24:30.999Z,101165.34
2019-05-11T06:25:33.251Z,101165.34
2019-05-11T06:26:35.663Z,101161.43
2019-05-11T06:27:37.883Z,101163.66
2019-05-11T06:28:40.298Z,101158.43
2019-05-11T06:29:42.518Z,101160.27
2019-05-11T06:30:44.964Z,101161.05
2019-05-11T06:31:47.176Z,101162.34
2019-05-11T06:32:49.583Z,101162.34
2019-05-11T06:33:51.789Z,101164.19
2019-05-11T06:34:54.228Z,101167.86
2019-05-11T06:35:56.435Z,101161.19
2019-05-11T06:36:58.859Z,101163.02
2019-05-11T06:38:01.078Z,101167.33
2019-05-11T06:39:04.287Z,101167.33
2019-05-11T06:40:06.553Z,101165.64
2019-05-11T06:41:08.953Z,101167.09
2019-05-11T06:42:11.179Z,101166.55
2019-05-11T06:43:13.575Z,101162.25
2019-05-11T06:44:15.802Z,101161.86
2019-05-11T06:45:18.215Z,101168.01
2019-05-11T06:46:20.439Z,101168.92
2019-05-11T06:47:22.843Z,101168.16
2019-05-11T06:48:25.067Z,101180.48
2019-05-11T06:49:27.439Z,101170.56
2019-05-11T06:50:29.677Z,101173.31
2019-05-11T06:51:32.070Z,101178.01
2019-05-11T06:52:34.287Z,101179.70
2019-05-11T06:53:36.742Z,101181.01
2019-05-11T06:54:38.963Z,101180.86
2019-05-11T06:55:41.433Z,101181.22
2019-05-11T06:56:43.693Z,101181.60
2019-05-11T06:57:46.098Z,101184.60
2019-05-11T06:58:48.319Z,101186.30
2019-05-11T06:59:50.709Z,101186.83
2019-05-11T07:00:52.929Z,101184.78
2019-05-11T07:01:55.325Z,101179.31
2019-05-11T07:02:57.547Z,101184.01
2019-05-11T07:03:59.953Z,101185.46
2019-05-11T07:05:02.163Z,101181.01
2019-05-11T07:06:04.567Z,101188.84
2019-05-11T07:07:06.783Z,101182.31
2019-05-11T07:08:09.179Z,101183.63
2019-05-11T07:09:11.409Z,101184.92
2019-05-11T07:10:13.831Z,101186.77
2019-05-11T07:11:16.079Z,101186.63
2019-05-11T07:12:18.624Z,101191.45
2019-05-11T07:13:20.872Z,101195.91
2019-05-11T07:14:23.274Z,101193.30
2019-05-11T07:15:25.574Z,101193.83
2019-05-11T07:16:27.991Z,101195.58
2019-05-11T07:17:30.192Z,101190.83
2019-05-11T07:18:32.567Z,101194.41
2019-05-11T07:19:34.795Z,101199.39
2019-05-11T07:20:49.389Z,101199.09
2019-05-11T07:21:41.084Z,101195.45
2019-05-11T07:22:43.473Z,101201.60
2019-05-11T07:23:45.694Z,101208.91
2019-05-11T07:24:48.091Z,101207.60
2019-05-11T07:25:51.375Z,101206.68
2019-05-11T07:26:53.754Z,101210.31
2019-05-11T07:27:55.986Z,101206.53
2019-05-11T07:28:58.365Z,101213.45
2019-05-11T07:30:00.681Z,101213.45
2019-05-11T07:31:03.095Z,101215.54
2019-05-11T07:32:14.933Z,101210.17
2019-05-11T07:33:09.363Z,101213.70
2019-05-11T07:34:13.134Z,101211.48
2019-05-11T07:35:15.561Z,101214.09
2019-05-11T07:36:17.908Z,101221.54
2019-05-11T07:37:23.939Z,101213.70
2019-05-11T07:38:24.417Z,101217.83
2019-05-11T07:39:27.938Z,101220.94
2019-05-11T07:40:30.353Z,101220.94
2019-05-11T07:41:32.752Z,101227.54
2019-05-11T07:42:34.984Z,101225.16
2019-05-11T07:43:38.066Z,101225.99
2019-05-11T07:44:41.891Z,101222.23
2019-05-11T07:45:44.405Z,101224.89
2019-05-11T07:46:48.324Z,101221.98
2019-05-11T07:47:50.854Z,101224.89
2019-05-11T07:48:53.042Z,101224.80
2019-05-11T07:49:57.725Z,101218.56
2019-05-11T07:50:59.323Z,101218.17
2019-05-11T07:52:01.715Z,101222.42
2019-05-11T07:53:03.956Z,101221.11
2019-05-11T07:54:08.415Z,101219.81
2019-05-11T07:55:10.244Z,101219.03
2019-05-11T07:56:12.627Z,101223.87
2019-05-11T07:57:14.848Z,101224.41
2019-05-11T07:58:20.162Z,101222.33
2019-05-11T07:59:21.155Z,101223.24
2019-05-11T08:00:23.571Z,101231.62
2019-05-11T08:01:28.053Z,101226.00
2019-05-11T08:02:32.323Z,101222.62
2019-05-11T08:03:33.748Z,101227.07
2019-05-11T08:04:37.871Z,101221.07
2019-05-11T08:05:40.016Z,101229.44
2019-05-11T08:06:42.501Z,101227.39
2019-05-11T08:07:44.704Z,101224.01
2019-05-11T08:08:49.090Z,101233.16
2019-05-11T08:09:50.954Z,101224.01
2019-05-11T08:10:53.360Z,101224.55
2019-05-11T08:11:55.618Z,101228.99
2019-05-11T08:12:58.707Z,101223.23
2019-05-11T08:14:01.144Z,101221.78
2019-05-11T08:15:09.958Z,101227.39
2019-05-11T08:16:08.276Z,101227.01
2019-05-11T08:17:10.844Z,101224.55
2019-05-11T08:18:13.040Z,101229.77
2019-05-11T08:19:18.210Z,101229.77
2019-05-11T08:20:19.361Z,101227.54
2019-05-11T08:21:21.759Z,101230.92
2019-05-11T08:22:23.988Z,101228.84
2019-05-11T08:23:28.347Z,101231.46
2019-05-11T08:24:30.239Z,101239.44
2019-05-11T08:25:32.645Z,101238.14
2019-05-11T08:26:34.878Z,101233.69
2019-05-11T08:27:37.863Z,101236.83
2019-05-11T08:28:40.189Z,101231.07
2019-05-11T08:29:42.589Z,101237.75
2019-05-11T08:30:44.799Z,101234.75
2019-05-11T08:31:48.761Z,101232.52
2019-05-11T08:32:51.230Z,101236.05
2019-05-11T08:33:53.616Z,101239.20
2019-05-11T08:34:57.909Z,101241.43
2019-05-11T08:35:59.922Z,101237.13
2019-05-11T08:37:02.157Z,101240.13
2019-05-11T08:38:04.554Z,101240.52
2019-05-11T08:39:07.866Z,101233.44
2019-05-11T08:40:10.383Z,101233.30
2019-05-11T08:41:12.637Z,101234.07
2019-05-11T08:42:15.018Z,101237.45
2019-05-11T08:43:17.965Z,101232.38
2019-05-11T08:44:21.699Z,101241.67
2019-05-11T08:45:24.868Z,101238.14
2019-05-11T08:46:28.044Z,101231.22
2019-05-11T08:47:30.393Z,101236.59
2019-05-11T08:48:32.798Z,101239.20
2019-05-11T08:49:34.994Z,101241.81
2019-05-11T08:50:38.267Z,101236.97
2019-05-11T08:51:40.642Z,101233.05
2019-05-11T08:52:43.059Z,101240.13
2019-05-11T08:53:45.314Z,101239.20
2019-05-11T08:54:48.681Z,101241.05
2019-05-11T08:55:51.023Z,101238.81
2019-05-11T08:56:53.420Z,101240.13
2019-05-11T08:57:55.628Z,101238.81
2019-05-11T08:58:58.792Z,101243.13
2019-05-11T09:00:01.232Z,101242.73
2019-05-11T09:01:03.645Z,101245.59
2019-05-11T09:02:08.051Z,101244.14
2019-05-11T09:03:09.965Z,101241.77
2019-05-11T09:04:12.174Z,101247.67
2019-05-11T09:05:14.580Z,101247.14
2019-05-11T09:06:17.959Z,101248.06
2019-05-11T09:07:20.615Z,101246.36
2019-05-11T09:08:22.845Z,101248.98
2019-05-11T09:09:25.246Z,101245.45
2019-05-11T09:10:28.168Z,101250.42
2019-05-11T09:11:30.742Z,101241.81
2019-05-11T09:12:32.975Z,101249.66
2019-05-11T09:13:35.380Z,101244.43
2019-05-11T09:14:38.753Z,101247.04
2019-05-11T09:15:41.316Z,101240.52
2019-05-11T09:16:43.543Z,101247.96
2019-05-11T09:17:45.961Z,101247.96
2019-05-11T09:18:48.264Z,101249.27
2019-05-11T09:19:51.776Z,101242.73
2019-05-11T09:20:53.910Z,101245.34
2019-05-11T09:21:58.595Z,101247.19
2019-05-11T09:23:00.988Z,101245.34
2019-05-11T09:24:03.338Z,101240.13
2019-05-11T09:25:05.855Z,101242.34
2019-05-11T09:26:08.921Z,101241.05
2019-05-11T09:27:11.289Z,101239.73
2019-05-11T09:28:13.670Z,101239.34
2019-05-11T09:29:17.759Z,101241.05
2019-05-11T09:30:19.946Z,101237.13
2019-05-11T09:31:22.151Z,101241.96
2019-05-11T09:32:24.564Z,101243.27
2019-05-11T09:33:28.344Z,101248.88
2019-05-11T09:34:30.943Z,101248.88
2019-05-11T09:35:46.787Z,101249.27
2019-05-11T09:36:38.935Z,101249.41
2019-05-11T09:37:41.067Z,101249.80
2019-05-11T09:38:43.485Z,101252.03
2019-05-11T09:39:47.742Z,101246.66
2019-05-11T09:40:50.735Z,101251.64
2019-05-11T09:41:52.969Z,101248.11
2019-05-11T09:42:55.357Z,101253.72
2019-05-11T09:43:58.655Z,101249.41
2019-05-11T09:45:01.293Z,101248.49
2019-05-11T09:46:03.547Z,101252.03
2019-05-11T09:47:08.125Z,101254.25
2019-05-11T09:48:09.831Z,101245.11
2019-05-11T09:49:12.240Z,101250.72
2019-05-11T09:50:14.452Z,101247.72
2019-05-11T09:51:18.396Z,101253.34
2019-05-11T09:52:20.907Z,101251.25
2019-05-11T09:53:23.313Z,101255.56
2019-05-11T09:54:25.515Z,101258.74
2019-05-11T09:55:28.398Z,101256.48
2019-05-11T09:56:30.740Z,101256.12
2019-05-11T09:57:33.180Z,101256.12
2019-05-11T09:58:35.407Z,101252.56
2019-05-11T09:59:38.546Z,101254.82
2019-05-11T10:00:40.999Z,101254.82
2019-05-11T10:01:43.419Z,101263.19
2019-05-11T10:02:45.636Z,101258.74
2019-05-11T10:03:48.367Z,101260.40
2019-05-11T10:04:50.687Z,101256.48
2019-05-11T10:05:53.199Z,101260.97
2019-05-11T10:06:55.443Z,101264.89
2019-05-11T10:07:58.866Z,101264.50
2019-05-11T10:09:01.428Z,101258.35
2019-05-11T10:10:03.873Z,101260.40
2019-05-11T10:11:08.166Z,101267.32
2019-05-11T10:12:10.220Z,101262.09
2019-05-11T10:13:12.462Z,101263.97
2019-05-11T10:14:14.856Z,101262.66
2019-05-11T10:15:18.809Z,101265.62
2019-05-11T10:16:21.357Z,101263.58
2019-05-11T10:18:28.187Z,101266.94
2019-05-11T10:19:30.803Z,101260.40
2019-05-11T10:20:33.007Z,101268.23
2019-05-11T10:21:35.400Z,101265.27
2019-05-11T10:22:38.494Z,101269.20
2019-05-11T10:23:42.560Z,101267.89
2019-05-11T10:24:44.986Z,101266.58
2019-05-11T10:25:48.105Z,101268.23
2019-05-11T10:26:50.367Z,101266.58
2019-05-11T10:27:52.775Z,101261.17
2019-05-11T10:28:54.967Z,101263.78
2019-05-11T10:29:58.911Z,101267.70
2019-05-11T10:31:01.253Z,101267.32
2019-05-11T10:32:03.644Z,101270.85
2019-05-11T10:33:08.109Z,101270.50
2019-05-11T10:34:10.003Z,101268.63
2019-05-11T10:35:12.296Z,101270.32
2019-05-11T10:36:14.686Z,101269.78
2019-05-11T10:37:17.673Z,101268.87
2019-05-11T10:38:20.327Z,101277.63
2019-05-11T10:39:22.515Z,101270.32
2019-05-11T10:40:24.920Z,101270.85
2019-05-11T10:41:28.505Z,101266.79
2019-05-11T10:42:31.042Z,101276.31
2019-05-11T10:43:33.253Z,101281.94
2019-05-11T10:44:35.695Z,101279.85
2019-05-11T10:45:38.031Z,101276.85
2019-05-11T10:46:40.494Z,101275.16
2019-05-11T10:47:42.687Z,101277.03
2019-05-11T10:48:45.101Z,101279.65
2019-05-11T10:49:48.455Z,101278.69
2019-05-11T10:50:51.095Z,101282.27
2019-05-11T10:51:53.374Z,101274.03
2019-05-11T10:52:55.767Z,101273.47
2019-05-11T10:53:57.999Z,101280.00
2019-05-11T10:55:00.387Z,101274.42
2019-05-11T10:56:02.589Z,101273.47
2019-05-11T10:57:04.980Z,101273.47
2019-05-11T10:58:08.616Z,101274.23
2019-05-11T10:59:11.186Z,101277.77
2019-05-11T11:00:13.377Z,101274.77
2019-05-11T11:01:17.947Z,101270.85
2019-05-11T11:02:19.582Z,101275.16
2019-05-11T11:03:21.996Z,101275.16
2019-05-11T11:04:24.325Z,101275.34
2019-05-11T11:05:27.906Z,101275.73
2019-05-11T11:06:30.367Z,101279.47
2019-05-11T11:07:32.756Z,101274.23
2019-05-11T11:08:34.942Z,101277.39
2019-05-11T11:09:38.556Z,101277.39
2019-05-11T11:10:40.861Z,101271.23
2019-05-11T11:11:43.267Z,101268.48
2019-05-11T11:12:45.471Z,101270.70
2019-05-11T11:13:48.261Z,101277.77
2019-05-11T11:14:50.570Z,101271.63
2019-05-11T11:15:52.954Z,101275.16
2019-05-11T11:16:55.194Z,101270.85
2019-05-11T11:17:57.988Z,101270.50
2019-05-11T11:19:00.259Z,101271.42
2019-05-11T11:20:02.644Z,101270.32
2019-05-11T11:21:04.836Z,101273.32
2019-05-11T11:22:29.357Z,101268.48
2019-05-11T11:23:11.108Z,101273.32
2019-05-11T11:24:13.478Z,101272.93
2019-05-11T11:25:17.745Z,101273.85
2019-05-11T11:26:19.710Z,101277.77
2019-05-11T11:27:21.944Z,101279.08
2019-05-11T11:28:24.338Z,101274.23
2019-05-11T11:29:28.556Z,101272.93
2019-05-11T11:30:30.670Z,101270.32
2019-05-11T11:31:32.909Z,101272.93
2019-05-11T11:32:35.293Z,101279.47
2019-05-11T11:33:38.261Z,101269.94
2019-05-11T11:34:40.787Z,101269.94
2019-05-11T11:35:42.985Z,101269.20
2019-05-11T11:36:45.299Z,101272.16
2019-05-11T11:37:47.947Z,101274.77
2019-05-11T11:38:50.357Z,101279.65
2019-05-11T11:39:52.555Z,101281.48
2019-05-11T11:40:54.940Z,101275.88
2019-05-11T11:41:58.543Z,101277.56
2019-05-11T11:43:01.205Z,101273.80
2019-05-11T11:44:03.398Z,101276.94
2019-05-11T11:45:07.870Z,101270.97
2019-05-11T11:46:09.644Z,101272.04
2019-05-11T11:47:12.030Z,101268.89
2019-05-11T11:48:14.254Z,101274.51
2019-05-11T11:49:18.794Z,101276.73
2019-05-11T11:50:20.512Z,101274.13
2019-05-11T11:51:22.905Z,101278.42
2019-05-11T11:52:25.095Z,101276.20
2019-05-11T11:53:28.028Z,101277.66
2019-05-11T11:54:30.286Z,101274.27